createdAt,value
2022-11-28T00:02:05.296Z,3.41
2022-11-28T00:04:34.376Z,3.64
2022-11-28T00:07:03.759Z,3.71
2022-11-28T00:09:33.420Z,3.69
2022-11-28T00:12:02.272Z,3.24
2022-11-28T00:14:38.144Z,3.28
2022-11-28T00:17:07.584Z,3.39
2022-11-28T00:19:37.638Z,3.37
2022-11-28T00:22:07.189Z,2.72
2022-11-28T00:24:36.283Z,3.02
2022-11-28T00:27:05.243Z,3.25
2022-11-28T00:29:34.068Z,3.10
2022-11-28T00:32:04.388Z,3.54
2022-11-28T00:34:33.894Z,3.60
2022-11-28T00:37:02.952Z,3.54
2022-11-28T00:39:48.579Z,4.01
2022-11-28T00:42:21.099Z,4.35
2022-11-28T00:44:50.705Z,4.49
2022-11-28T00:47:21.254Z,4.07
2022-11-28T00:49:54.285Z,4.43
2022-11-28T00:52:29.055Z,4.50
2022-11-28T00:55:06.643Z,4.86
2022-11-28T00:57:36.510Z,4.56
2022-11-28T01:00:09.383Z,4.86
2022-11-28T01:02:40.360Z,4.74
2022-11-28T01:05:10.746Z,5.02
2022-11-28T01:07:42.472Z,5.01
2022-11-28T01:10:12.442Z,4.84
2022-11-28T01:12:41.855Z,4.92
2022-11-28T01:15:13.646Z,4.70
2022-11-28T01:17:44.041Z,5.04
2022-11-28T01:20:14.211Z,5.19
2022-11-28T01:22:43.136Z,4.89
2022-11-28T01:25:12.352Z,4.89
2022-11-28T01:27:41.406Z,4.94
2022-11-28T01:30:10.876Z,4.57
2022-11-28T01:32:39.912Z,4.50
2022-11-28T01:35:11.044Z,4.91
2022-11-28T01:37:39.971Z,4.87
2022-11-28T01:40:10.332Z,4.64
2022-11-28T01:42:39.527Z,5.19
2022-11-28T01:45:16.524Z,5.16
2022-11-28T01:47:46.499Z,4.33
2022-11-28T01:50:17.369Z,4.84
2022-11-28T01:52:48.583Z,5.01
2022-11-28T01:55:21.931Z,4.73
2022-11-28T01:57:52.634Z,3.99
2022-11-28T02:00:22.972Z,4.27
2022-11-28T02:02:55.868Z,3.52
2022-11-28T02:05:26.398Z,4.22
2022-11-28T02:07:55.808Z,3.90
2022-11-28T02:10:27.325Z,3.01
2022-11-28T02:13:11.269Z,3.65
2022-11-28T02:16:00.465Z,3.56
2022-11-28T02:18:50.301Z,4.10
2022-11-28T02:21:40.819Z,4.63
2022-11-28T02:24:46.595Z,4.71
2022-11-28T02:27:51.248Z,4.70
2022-11-28T02:30:22.355Z,5.06
2022-11-28T02:33:06.812Z,4.99
2022-11-28T02:35:43.083Z,4.59
2022-11-28T02:38:22.651Z,5.13
2022-11-28T02:41:01.190Z,5.02
2022-11-28T02:43:36.241Z,4.35
2022-11-28T02:46:15.250Z,4.33
2022-11-28T02:48:51.570Z,5.05
2022-11-28T02:51:27.347Z,3.70
2022-11-28T02:53:58.190Z,4.86
2022-11-28T02:56:27.742Z,3.93
2022-11-28T02:58:57.215Z,4.47
2022-11-28T03:01:30.899Z,4.98
2022-11-28T03:04:17.969Z,5.09
2022-11-28T03:06:58.555Z,5.03
2022-11-28T03:09:48.222Z,5.22
2022-11-28T03:12:26.134Z,4.96
2022-11-28T03:14:57.422Z,5.10
2022-11-28T03:17:34.457Z,5.32
2022-11-28T03:20:16.969Z,4.60
2022-11-28T03:22:56.406Z,5.13
2022-11-28T03:25:30.258Z,5.09
2022-11-28T03:28:07.852Z,5.25
2022-11-28T03:30:43.305Z,4.45
2022-11-28T03:33:16.178Z,4.51
2022-11-28T03:35:52.764Z,4.92
2022-11-28T03:38:26.459Z,4.50
2022-11-28T03:41:00.264Z,4.17
2022-11-28T03:43:34.342Z,4.85
2022-11-28T03:46:07.369Z,4.71
2022-11-28T03:48:41.687Z,4.66
2022-11-28T03:51:17.689Z,5.26
2022-11-28T03:53:55.326Z,4.87
2022-11-28T03:56:32.116Z,5.15
2022-11-28T03:59:11.894Z,5.21
2022-11-28T04:01:54.675Z,5.39
2022-11-28T04:04:30.346Z,5.46
2022-11-28T04:07:10.600Z,5.17
2022-11-28T04:09:45.707Z,4.56
2022-11-28T04:12:21.269Z,5.07
2022-11-28T04:14:54.998Z,5.15
2022-11-28T04:17:32.114Z,4.97
2022-11-28T04:20:07.421Z,4.50
2022-11-28T04:22:45.181Z,5.18
2022-11-28T04:25:17.278Z,4.90
2022-11-28T04:27:51.341Z,5.45
2022-11-28T04:30:20.628Z,5.00
2022-11-28T04:32:53.497Z,4.88
2022-11-28T04:35:27.572Z,4.91
2022-11-28T04:38:00.396Z,4.70
2022-11-28T04:40:33.478Z,4.93
2022-11-28T04:43:05.954Z,5.10
2022-11-28T04:45:37.823Z,5.07
2022-11-28T04:48:08.374Z,5.14
2022-11-28T04:50:43.550Z,5.42
2022-11-28T04:53:19.900Z,5.12
2022-11-28T04:55:52.752Z,4.34
2022-11-28T04:58:26.290Z,4.45
2022-11-28T05:00:59.007Z,4.64
2022-11-28T05:03:30.212Z,4.77
2022-11-28T05:06:00.190Z,5.03
2022-11-28T05:08:30.864Z,4.35
2022-11-28T05:11:00.554Z,4.38
2022-11-28T05:13:29.936Z,4.54
2022-11-28T05:16:03.553Z,4.19
2022-11-28T05:18:32.988Z,4.05
2022-11-28T05:21:02.675Z,4.19
2022-11-28T05:23:34.726Z,3.88
2022-11-28T05:26:07.494Z,4.36
2022-11-28T05:28:36.750Z,4.61
2022-11-28T05:31:07.113Z,4.57
2022-11-28T05:33:36.630Z,5.17
2022-11-28T05:36:12.591Z,4.88
2022-11-28T05:38:45.278Z,5.08
2022-11-28T05:41:21.090Z,4.95
2022-11-28T05:43:50.430Z,5.57
2022-11-28T05:46:21.934Z,5.74
2022-11-28T05:48:51.444Z,5.60
2022-11-28T05:51:21.456Z,5.77
2022-11-28T05:53:52.385Z,5.52
2022-11-28T05:56:23.518Z,5.50
2022-11-28T05:58:54.381Z,5.67
2022-11-28T06:01:25.407Z,5.45
2022-11-28T06:04:00.123Z,5.52
2022-11-28T06:06:30.897Z,5.00
2022-11-28T06:09:01.585Z,5.08
2022-11-28T06:11:33.192Z,4.89
2022-11-28T06:14:06.008Z,4.47
2022-11-28T06:16:35.310Z,4.25
2022-11-28T06:19:07.072Z,3.91
2022-11-28T06:21:36.743Z,3.96
2022-11-28T06:24:08.305Z,4.20
2022-11-28T06:26:37.604Z,4.51
2022-11-28T06:29:07.015Z,4.90
2022-11-28T06:31:36.717Z,4.51
2022-11-28T06:34:06.786Z,4.69
2022-11-28T06:36:37.957Z,5.03
2022-11-28T06:39:09.936Z,4.98
2022-11-28T06:41:40.412Z,5.23
2022-11-28T06:44:14.019Z,5.33
2022-11-28T06:46:45.131Z,5.02
2022-11-28T06:49:15.628Z,5.08
2022-11-28T06:51:46.003Z,5.21
2022-11-28T06:54:16.808Z,5.03
2022-11-28T06:56:46.564Z,5.47
2022-11-28T07:00:22.322Z,5.20
2022-11-28T07:03:37.769Z,5.66
2022-11-28T07:06:14.958Z,5.69
2022-11-28T07:08:48.021Z,4.46
2022-11-28T07:11:22.505Z,5.31
2022-11-28T07:13:56.881Z,2.57
2022-11-28T07:16:29.069Z,5.36
2022-11-28T07:19:00.890Z,4.22
2022-11-28T13:45:46.835Z,4.52
2022-11-28T13:49:19.943Z,4.93
2022-11-28T13:51:50.663Z,4.50
2022-11-28T13:55:11.366Z,4.16
2022-11-28T13:57:48.260Z,4.05
2022-11-28T14:00:23.932Z,3.94
2022-11-28T14:02:55.383Z,4.36
2022-11-28T14:05:58.783Z,5.04
2022-11-28T14:08:36.615Z,3.39
2022-11-28T14:20:52.833Z,3.96
2022-11-28T14:23:33.311Z,4.38
2022-11-28T14:26:13.451Z,4.28
2022-11-28T14:28:46.383Z,4.42
2022-11-28T14:31:34.813Z,4.12
2022-11-28T14:34:12.258Z,4.07
2022-11-28T14:36:44.062Z,3.40
2022-11-28T14:39:35.966Z,4.64
2022-11-28T14:42:59.747Z,4.69
2022-11-28T14:45:43.304Z,5.03
2022-11-28T14:48:30.181Z,4.76
2022-11-28T14:51:02.657Z,4.39
2022-11-28T14:53:57.191Z,4.30
2022-11-28T14:56:33.451Z,4.31
2022-11-28T14:59:13.350Z,4.31
2022-11-28T15:01:58.507Z,4.92
2022-11-28T15:04:57.918Z,4.45
2022-11-28T15:07:54.542Z,3.08
2022-11-28T15:10:46.103Z,3.29
2022-11-28T15:13:36.877Z,3.76
2022-11-28T15:19:38.649Z,4.87
2022-11-28T15:22:38.697Z,5.19
2022-11-28T15:28:44.025Z,4.66
2022-11-28T15:31:23.270Z,3.94
2022-11-28T15:34:05.739Z,4.07
2022-11-28T15:36:39.930Z,4.79
2022-11-28T15:39:30.567Z,4.16
2022-11-28T15:42:10.473Z,1.14
2022-11-28T15:44:49.298Z,1.72
2022-11-28T15:47:27.594Z,0.84
2022-11-28T15:50:01.850Z,-0.78
2022-11-28T15:52:34.543Z,0.67
2022-11-28T15:55:04.952Z,-0.69
2022-11-28T15:57:50.552Z,-0.86
2022-11-28T16:00:24.591Z,0.37
2022-11-28T16:02:55.232Z,0.55
2022-11-28T16:05:30.949Z,-0.23
2022-11-28T16:08:13.276Z,0.74
2022-11-28T16:10:45.950Z,-0.29
2022-11-28T16:13:21.504Z,0.54
2022-11-28T16:16:02.679Z,-0.68
2022-11-28T16:18:33.824Z,2.62
2022-11-28T16:21:07.547Z,3.59
2022-11-28T16:23:38.639Z,4.09
2022-11-28T16:26:20.281Z,4.42
2022-11-28T16:29:04.115Z,5.49
2022-11-28T16:31:35.686Z,4.58
2022-11-28T16:34:07.495Z,4.31
2022-11-28T16:36:38.674Z,5.12
2022-11-28T16:39:17.595Z,2.32
2022-11-28T16:41:54.289Z,0.87
2022-11-28T16:44:26.401Z,0.75
2022-11-28T16:46:59.635Z,0.65
2022-11-28T16:49:46.353Z,3.88
2022-11-28T16:52:45.784Z,5.01
2022-11-28T16:55:47.185Z,5.46
2022-11-28T16:58:22.669Z,4.16
2022-11-28T17:01:01.372Z,5.54
2022-11-28T17:03:50.702Z,5.71
2022-11-28T17:06:25.375Z,4.95
2022-11-28T17:08:58.321Z,5.72
2022-11-28T17:11:40.523Z,5.01
2022-11-28T17:14:13.869Z,5.48
2022-11-28T17:16:51.851Z,5.16
2022-11-28T17:19:22.516Z,5.46
2022-11-28T17:21:54.260Z,4.92
2022-11-28T17:24:35.249Z,4.77
2022-11-28T17:27:09.015Z,4.50
2022-11-28T17:29:39.173Z,4.60
2022-11-28T17:32:11.926Z,4.34
2022-11-28T17:34:43.033Z,4.97
2022-11-28T17:37:16.478Z,5.35
2022-11-28T17:41:34.502Z,4.86
2022-11-28T17:44:14.247Z,4.71
2022-11-28T17:47:13.313Z,4.54
2022-11-28T17:50:44.255Z,5.40
2022-11-28T17:57:45.095Z,4.62
2022-11-28T18:00:16.913Z,4.58
2022-11-28T18:02:53.288Z,4.68
2022-11-28T18:05:26.244Z,4.72
2022-11-28T18:07:58.756Z,3.67
2022-11-28T18:10:28.140Z,4.48
2022-11-28T18:12:57.380Z,3.73
2022-11-28T18:15:44.760Z,3.49
2022-11-28T18:18:56.552Z,3.73
2022-11-28T18:21:33.986Z,4.57
2022-11-28T18:24:07.601Z,4.94
2022-11-28T18:26:42.499Z,5.01
2022-11-28T18:29:16.819Z,3.69
2022-11-28T18:31:52.025Z,5.36
2022-11-28T18:34:26.667Z,4.92
2022-11-28T18:37:08.107Z,5.73
2022-11-28T18:39:45.361Z,5.69
2022-11-28T18:42:41.506Z,3.70
2022-11-28T18:45:23.012Z,5.04
2022-11-28T18:47:55.941Z,3.82
2022-11-28T18:50:32.347Z,5.27
2022-11-28T18:53:04.409Z,4.04
2022-11-28T18:55:34.705Z,4.62
2022-11-28T18:58:20.480Z,5.11
2022-11-28T19:01:01.041Z,3.72
2022-11-28T19:03:34.178Z,5.47
2022-11-28T19:06:16.378Z,5.64
2022-11-28T19:08:56.498Z,2.40
2022-11-28T19:11:36.163Z,4.26
2022-11-28T19:14:07.028Z,6.11
2022-11-28T19:16:45.988Z,6.10
2022-11-28T19:19:29.160Z,5.18
2022-11-28T19:21:59.570Z,5.50
2022-11-28T19:24:47.659Z,5.81
2022-11-28T19:27:30.844Z,5.99
2022-11-28T19:30:32.075Z,5.78
2022-11-28T19:33:14.324Z,1.17
2022-11-28T19:40:02.287Z,4.66
2022-11-28T19:46:12.791Z,6.28
2022-11-28T19:49:24.863Z,5.85
2022-11-28T19:52:18.427Z,1.89
2022-11-28T19:55:07.478Z,1.36
2022-11-28T19:58:12.570Z,5.96
2022-11-28T20:00:54.110Z,5.07
2022-11-28T20:03:59.474Z,5.61
2022-11-28T20:06:40.671Z,5.79
2022-11-28T20:09:17.535Z,5.81
2022-11-28T20:12:04.008Z,4.78
2022-11-28T20:14:50.996Z,5.03
2022-11-28T20:17:21.779Z,6.53
2022-11-28T20:19:56.752Z,6.16
2022-11-28T20:22:33.220Z,6.52
2022-11-28T20:25:05.254Z,5.04
2022-11-28T20:27:37.759Z,6.76
2022-11-28T20:30:39.845Z,5.22
2022-11-28T20:33:42.070Z,6.51
2022-11-28T20:36:33.628Z,1.70
2022-11-28T20:39:14.299Z,4.17
2022-11-28T20:41:50.234Z,5.28
2022-11-28T20:44:27.594Z,5.03
2022-11-28T20:47:08.188Z,5.36
2022-11-28T20:49:43.130Z,6.96
2022-11-28T20:52:14.807Z,7.19
2022-11-28T20:54:46.939Z,6.99
2022-11-28T20:57:22.056Z,5.24
2022-11-28T21:00:00.524Z,5.84
2022-11-28T21:02:41.910Z,4.58
2022-11-28T21:05:12.229Z,5.94
2022-11-28T21:07:47.792Z,4.63
2022-11-28T21:10:17.862Z,5.30
2022-11-28T21:12:49.038Z,6.71
2022-11-28T21:15:21.495Z,2.34
2022-11-28T21:17:51.653Z,4.97
2022-11-28T21:20:27.886Z,6.03
2022-11-28T21:23:00.267Z,6.42
2022-11-28T21:25:33.178Z,6.73
2022-11-28T21:28:10.210Z,6.16
2022-11-28T21:30:47.915Z,6.65
2022-11-28T21:33:17.094Z,5.53
2022-11-28T21:35:49.319Z,6.28
2022-11-28T21:38:24.459Z,6.01
2022-11-28T21:41:23.372Z,5.90
2022-11-28T21:43:58.218Z,6.06
2022-11-28T21:46:31.067Z,5.59
2022-11-28T21:49:00.388Z,6.35
2022-11-28T21:51:33.886Z,6.01
2022-11-28T21:54:06.061Z,6.21
2022-11-28T21:56:38.542Z,4.89
2022-11-28T21:59:31.305Z,3.04
2022-11-28T22:05:41.537Z,5.01
2022-11-28T22:08:13.947Z,6.03
2022-11-28T22:10:43.377Z,6.15
2022-11-28T22:13:12.628Z,5.76
2022-11-28T22:15:48.953Z,5.38
2022-11-28T22:18:19.222Z,5.71
2022-11-28T22:21:28.527Z,6.34
2022-11-28T22:24:08.496Z,6.45
2022-11-28T22:26:52.217Z,6.59
2022-11-28T22:29:31.716Z,6.10
2022-11-28T22:32:01.139Z,6.66
2022-11-28T22:34:34.606Z,6.58
2022-11-28T22:37:07.856Z,6.81
2022-11-28T22:39:39.029Z,2.71
2022-11-28T22:42:09.130Z,1.46
2022-11-28T22:44:40.887Z,5.24
2022-11-28T22:47:11.523Z,5.95
2022-11-28T22:49:41.863Z,6.79
2022-11-28T22:52:11.252Z,6.52
2022-11-28T22:54:45.955Z,6.40
2022-11-28T22:57:15.294Z,6.10
2022-11-28T22:59:44.465Z,5.26
2022-11-28T23:02:13.536Z,5.54
2022-11-28T23:04:44.547Z,6.15
2022-11-28T23:07:14.041Z,5.91
2022-11-28T23:09:43.305Z,6.26
2022-11-28T23:12:12.914Z,6.44
2022-11-28T23:14:42.425Z,6.01
2022-11-28T23:17:15.848Z,6.22
2022-11-28T23:19:46.069Z,6.15
2022-11-28T23:22:15.344Z,6.35
2022-11-28T23:24:44.522Z,6.46
2022-11-28T23:27:13.549Z,6.11
2022-11-28T23:29:42.745Z,5.86
2022-11-28T23:32:12.815Z,6.01
2022-11-28T23:34:43.470Z,6.12
2022-11-28T23:37:14.779Z,6.17
2022-11-28T23:39:43.739Z,5.24
2022-11-28T23:42:14.180Z,6.05
2022-11-28T23:44:43.600Z,5.55
2022-11-28T23:47:12.508Z,1.83
2022-11-28T23:49:44.475Z,1.32
2022-11-28T23:52:14.749Z,5.19
2022-11-28T23:54:44.003Z,5.43
2022-11-28T23:57:13.129Z,5.60
2022-11-28T23:59:42.123Z,5.93
